Terminal Aerodrome Forecast
Issued by NWS Grand Forks, ND

Home | Current Version | Previous Version | Graphics & Text | Print | Product List | Glossary On
Versions: 1 2 3 4 5 6 7 8 9 10 11 12 13 14
586
FTUS43 KFGF 220520
TAFFAR
TAF
KFAR 220520Z 2206/2306 29006KT P6SM SKC
     FM221800 25011KT P6SM SCT200
     FM230200 28009KT P6SM FEW200=

USA.gov is the U.S. government's official web portal to all federal, state and local government web resources and services.